Historyczne dane pomiarowe

Dodano dane terminowe – wersja testowa.

Dane z okresu 1951-2019

Wersja bazy: 1.34 [2019-03-16, lista zmian], aktualizacja planowana na 2019-04-15

Dane meteo z obszaru Polski uzyskane na podstawie danych udostępnionych przez Instytut Meteorologii i Gospodarki Wodnej – Państwowy Instytut Badawczy.

 

Wybierz Datę:    

       

TemperaturaWilgotnośćWiatrCiśnienieOpadyŚniegCzas trwania zjawisk
 Stacja t tx tn tng RH VA  wxwx mslp ppp RRR   cm mm wxwxwxwxwxwxwx
1987-08-14 15.2 18.6 13.0- 89.5- 8.0 1.7---- 13.4------------
1987-08-13 15.4 18.5 13.6- 73.3- 1.7 1.7---- 1.2------------
1987-08-12 14.4 17.0 13.4- 78.8- 4.0 3.7---- 0.0------------
1987-08-11 14.3 16.3 11.9- 82.5- 5.0 5.7---- 0.0------------
1987-08-10 13.6 15.6 12.0- 93.3- 7.7 1.0---- 0.9------------
1987-08-09 13.8 16.6 11.6- 89.5- 6.7 1.0---- 1.4------------
1987-08-08 14.0 17.7 10.5- 73.8- 6.0 3.3---- 0.0------------
1987-08-07 14.0 17.8 9.1- 70.5- 3.3 2.7---- 0.0------------
1987-08-06 13.1 15.2 11.2- 84.3- 7.3 5.0---- 4.5------------
1987-08-05 14.0 16.2 11.8- 82.8- 7.3 6.0---- 8.2------------
1987-08-04 12.5 15.4 11.3- 86.3- 5.7 5.0---- 3.1------------
1987-08-03 14.2 17.1 12.5- 76.3- 7.0 6.0---- 3.2------------
1987-08-02 12.7 16.8 11.7- 81.3- 5.3 7.0---- 12.9------------
1987-08-01 16.0 17.8 14.7- 80.0- 6.0 6.7---- 0.2------------
1987-07-31 15.0 18.6 14.3- 82.5- 7.0 5.0---- 4.2------------
1987-07-30 16.5 20.7 13.4- 88.0- 7.0 2.3---- 15.6------------
1987-07-29 14.9 17.5 13.2- 74.5- 6.0 3.0---- 0.3------------
1987-07-28 14.9 17.8 13.4- 79.0- 7.0 8.7---- 0.4------------
1987-07-27 13.7 16.5 11.5- 78.8- 7.0 5.3---- 0.0------------
1987-07-26 13.3 17.1 11.5- 75.3- 5.7 5.7---- 0.8------------
1987-07-25 15.2 18.5 12.8- 73.5- 4.3 4.7---- 0.2------------
1987-07-24 17.5 19.7 15.5- 89.8- 6.7 3.7---- 8.6------------
1987-07-23 15.9 19.2 13.7- 96.3- 7.0 1.0---- 0.7------------
1987-07-22 16.0 17.7 15.4- 92.3- 7.3 2.7---- 1.8------------
1987-07-21 16.3 19.8 13.8- 89.5- 6.3 3.0---- 1.0------------
1987-07-20 17.0 19.8 15.3- 88.8- 3.7 3.7---- 0.0------------
1987-07-19 17.5 18.8 15.0- 89.5- 6.0 3.3---- 14.4------------
1987-07-18 18.1 23.2 16.2- 92.0- 7.0 3.7---- 30.3------------
1987-07-17 18.4 25.2 15.4- 76.3- 5.0 6.0---- 0.4------------
1987-07-16 19.9 25.1 14.1- 63.3- 3.3 4.7---- 0.0------------
1987-07-15 19.0 24.2 12.6- 67.3- 3.0 2.7---- 0.8------------
1987-07-14 16.3 18.6 14.5- 80.5- 2.7 3.7---- 0.0------------
1987-07-13 16.1 17.9 14.5- 72.3- 4.3 8.7---- 0.0------------
1987-07-12 16.6 19.4 14.4- 88.8- 6.7 5.7---- 23.1------------
1987-07-11 14.9 16.8 11.9- 91.8- 7.7 2.0---- 15.2------------
1987-07-10 15.0 17.5 12.3- 72.8- 4.3 9.3---- 1.4------------
1987-07-09 16.3 20.0 12.7- 70.0- 3.3 6.3---- 3.8------------
1987-07-08 19.8 26.3 18.0- 83.5- 7.7 3.0---- 0.0------------
1987-07-07 22.6 29.4 15.9- 59.3- 3.3 4.3---- 0.0------------
1987-07-06 17.9 21.9 11.9- 61.5- 0.7 1.7---- 0.0------------
1987-07-05 16.5 18.7 13.4- 74.5- 3.0 2.7---- 0.0------------
1987-07-04 16.4 18.3 15.5- 73.8- 4.3 4.7---- 0.0------------
1987-07-03 16.5 20.1 12.1- 77.5- 3.0 2.3---- 0.0------------
1987-07-02 16.9 18.7 14.5- 74.0- 2.0 2.0---- 0.0------------
1987-07-01 18.0 27.8 16.6- 88.5- 5.7 2.3---- 0.0------------
1987-06-30 25.3 32.1 19.5- 74.5- 5.3 1.7---- 0.0------------
1987-06-29 18.5 23.5 13.7- 90.3- 7.7 2.3---- 0.0------------
1987-06-28 14.2 17.4 11.5- 84.5- 3.3 1.3---- 0.6------------
1987-06-27 14.9 17.6 12.5- 74.0- 6.7 1.7---- 4.4------------
1987-06-26 15.0 20.3 10.0- 80.5- 6.7 3.7---- 0.0------------
1987-06-25 12.4 15.4 9.4- 82.3- 6.0 3.3---- 2.0------------
1987-06-24 13.3 15.3 11.8- 83.3- 5.7 2.7---- 0.0------------
1987-06-23 14.1 17.8 10.8- 84.3- 5.7 3.0---- 1.9------------
1987-06-22 13.3 15.7 12.0- 78.3- 6.7 2.3---- 0.1------------
1987-06-21 15.9 19.7 12.4- 80.0- 7.0 2.3---- 0.0------------
1987-06-20 13.9 20.7 10.5- 81.0- 7.3 3.7---- 0.0------------
1987-06-19 12.5 15.8 9.9- 73.8- 5.7 4.0---- 0.0------------
1987-06-18 10.3 13.2 8.5- 87.3- 7.0 6.0---- 4.3------------
1987-06-17 12.2 14.8 10.2- 66.3- 6.3 7.7---- 0.0------------
1987-06-16 11.0 12.8 9.0- 90.8- 8.0 7.0---- 4.5------------
554.2 ms

 

Źródłem pochodzenia danych jest Instytut Meteorologii i Gospodarki Wodnej – Państwowy Instytut Badawczy. Dane Instytutu Meteorologii i Gospodarki Wodnej – Państwowego Instytutu Badawczego zostały przetworzone.

Dane źródłowe można odnaleźć na stronie https://dane.imgw.pl